Marianna, Pennsylvania
Current Conditions -  °F | °C
As of 11:15 AM on Sunday 25 Jan 2015 (Local Time) from KAFJ Reporting Station
Overcast Overcast  
Wind Chill:   Ceiling: 900
Heat Index:   Visibility: 5mi
Dew Point: -1°   Wind: 5mph
Humidity: 81%   Direction: 240°WSW
Pressure: 29.82"   Gusts: NA
Location:  40.02°N, 80.1°W
Report Text: KAFJ 251615Z AUTO 24004KT 5SM BKN009 OVC016 02/M01 A2982 RMK AO1
Loading
Personal Weather Stations






























Interactive Weather Map New forecast layout! Learn more

10-Day Weather Forecast

Advertisements
Track Severe Weather on mobile